Terminal Aerodrome Forecast
Issued by NWS

Home | Current Version | Previous Version | Text Only | Print | Product List | Glossary On
Versions: 1 2 3 4 5 6 7 8 9 10 11 12
000
FTAK31 PAJN 281100
TAFAYA
TAF
PAYA 281135Z 2812/0112 00000KT P6SM OVC150
     FM281800 VRB03KT P6SM SCT040 OVC080
     FM010000 VRB03KT P6SM SCT025 OVC050
     FM010500 VRB03KT 6SM -RA BR BKN020 OVC040
     FM011000 VRB03KT 4SM -RA BR BKN015 OVC025
      AMD LTD TO CLD VIS AND WIND 0101/0110=

USA.gov is the U.S. government's official web portal to all federal, state and local government web resources and services.